This is the latest recevied weather packets stored in our database for station/object EA5GTE-12. If no packets are shown the sender has not sent any weather packets the latest 10 day(s).
| Time | Temp. | Humidity | Pressure | Rain* | Wind** | Luminosity | Snow |
|---|---|---|---|---|---|---|---|
| 1777834338 | 17.78° C | 98% | 934.7 hPa | - | - | - | - |
| 1777833438 | 19.44° C | 100% | 934.4 hPa | - | - | - | - |
| 1777832538 | 18.33° C | 100% | 934.4 hPa | - | - | - | - |
| 1777831637 | 18.33° C | 100% | 934.3 hPa | - | - | - | - |
| 1777830738 | 18.89° C | 100% | 934.2 hPa | - | - | - | - |
| 1777829837 | 20.56° C | 85% | 934.1 hPa | - | - | - | - |
| 1777828937 | 25.56° C | 39% | 933.9 hPa | - | - | - | - |
| 1777828037 | 24.44° C | 42% | 934 hPa | - | - | - | - |
| 1777827137 | 26.11° C | 34% | 933.9 hPa | - | - | - | - |
| 1777826237 | 25.56° C | 39% | 934 hPa | - | - | - | - |
| 1777825337 | 23.89° C | 56% | 934.1 hPa | - | - | - | - |
| 1777824437 | 25° C | 58% | 934.2 hPa | - | - | - | - |
| 1777823537 | 23.89° C | 63% | 934.3 hPa | - | - | - | - |
| 1777822637 | 28.33° C | 44% | 934.2 hPa | - | - | - | - |
| 1777821737 | 29.44° C | 42% | 934.3 hPa | - | - | - | - |
| 1777820837 | 26.11° C | 53% | 934.6 hPa | - | - | - | - |
| 1777819937 | 26.11° C | 50% | 934.7 hPa | - | - | - | - |
| 1777819037 | 27.22° C | 49% | 934.9 hPa | - | - | - | - |
| 1777818137 | 21.67° C | 77% | 935.3 hPa | - | - | - | - |
| 1777817237 | 23.89° C | 73% | 935.3 hPa | - | - | - | - |
| 1777816337 | 23.89° C | 72% | 935.4 hPa | - | - | - | - |
| 1777815437 | 23.33° C | 78% | 935.6 hPa | - | - | - | - |
| 1777814537 | 24.44° C | 75% | 935.9 hPa | - | - | - | - |
| 1777812737 | 19.44° C | 100% | 936.6 hPa | - | - | - | - |
| 1777811837 | 19.44° C | 100% | 936.8 hPa | - | - | - | - |
* Rain since midnight (hover to see other rain measurements)
** Current wind speed in m/s (hover to see current wind gust speed)